sensor_id;sensor_type;location;lat;lon;timestamp;temperature;humidity
2995;DHT22;35277;49.890;8.222;2023-05-10T00:01:13;24.80;75.50
2995;DHT22;35277;49.890;8.222;2023-05-10T00:03:41;24.80;75.50
2995;DHT22;35277;49.890;8.222;2023-05-10T00:06:09;24.80;75.50
2995;DHT22;35277;49.890;8.222;2023-05-10T00:08:38;24.80;75.50
2995;DHT22;35277;49.890;8.222;2023-05-10T00:11:06;24.80;75.50
2995;DHT22;35277;49.890;8.222;2023-05-10T00:13:34;24.70;75.30
2995;DHT22;35277;49.890;8.222;2023-05-10T00:16:02;24.80;75.50
2995;DHT22;35277;49.890;8.222;2023-05-10T00:18:29;24.70;75.30
2995;DHT22;35277;49.890;8.222;2023-05-10T00:20:57;24.80;75.40
2995;DHT22;35277;49.890;8.222;2023-05-10T00:23:25;24.70;75.30
2995;DHT22;35277;49.890;8.222;2023-05-10T00:25:54;24.70;75.30
2995;DHT22;35277;49.890;8.222;2023-05-10T00:28:22;24.70;75.30
2995;DHT22;35277;49.890;8.222;2023-05-10T00:30:50;24.70;75.30
2995;DHT22;35277;49.890;8.222;2023-05-10T00:33:18;24.70;75.30
2995;DHT22;35277;49.890;8.222;2023-05-10T00:35:47;24.70;75.30
2995;DHT22;35277;49.890;8.222;2023-05-10T00:38:14;24.70;75.30
2995;DHT22;35277;49.890;8.222;2023-05-10T00:40:42;24.70;75.30
2995;DHT22;35277;49.890;8.222;2023-05-10T00:43:19;24.70;75.20
2995;DHT22;35277;49.890;8.222;2023-05-10T00:45:47;24.70;75.30
2995;DHT22;35277;49.890;8.222;2023-05-10T00:48:15;24.70;75.20
2995;DHT22;35277;49.890;8.222;2023-05-10T00:50:44;24.70;75.20
2995;DHT22;35277;49.890;8.222;2023-05-10T00:53:12;24.70;75.20
2995;DHT22;35277;49.890;8.222;2023-05-10T00:55:40;24.70;75.20
2995;DHT22;35277;49.890;8.222;2023-05-10T00:58:08;24.70;75.20
2995;DHT22;35277;49.890;8.222;2023-05-10T01:00:38;24.70;75.20
2995;DHT22;35277;49.890;8.222;2023-05-10T01:03:09;24.70;75.20
2995;DHT22;35277;49.890;8.222;2023-05-10T01:05:38;24.70;75.10
2995;DHT22;35277;49.890;8.222;2023-05-10T01:08:05;24.70;75.10
2995;DHT22;35277;49.890;8.222;2023-05-10T01:10:35;24.70;75.10
2995;DHT22;35277;49.890;8.222;2023-05-10T01:13:03;24.70;75.10
2995;DHT22;35277;49.890;8.222;2023-05-10T01:15:31;24.70;75.10
2995;DHT22;35277;49.890;8.222;2023-05-10T01:18:01;24.70;75.20
2995;DHT22;35277;49.890;8.222;2023-05-10T01:20:34;24.70;75.10
2995;DHT22;35277;49.890;8.222;2023-05-10T01:23:24;24.70;75.20
2995;DHT22;35277;49.890;8.222;2023-05-10T01:26:19;24.70;75.10
2995;DHT22;35277;49.890;8.222;2023-05-10T01:29:14;24.70;75.10
2995;DHT22;35277;49.890;8.222;2023-05-10T01:34:54;24.70;75.10
2995;DHT22;35277;49.890;8.222;2023-05-10T01:37:29;24.70;75.10
2995;DHT22;35277;49.890;8.222;2023-05-10T01:40:02;24.70;75.10
2995;DHT22;35277;49.890;8.222;2023-05-10T01:42:38;24.70;75.20
2995;DHT22;35277;49.890;8.222;2023-05-10T01:45:14;24.70;75.20
2995;DHT22;35277;49.890;8.222;2023-05-10T01:47:50;24.70;75.20
2995;DHT22;35277;49.890;8.222;2023-05-10T01:50:24;24.70;75.10
2995;DHT22;35277;49.890;8.222;2023-05-10T01:52:57;24.70;75.10
2995;DHT22;35277;49.890;8.222;2023-05-10T01:55:28;24.70;75.20
2995;DHT22;35277;49.890;8.222;2023-05-10T01:58:01;24.70;75.10
2995;DHT22;35277;49.890;8.222;2023-05-10T02:00:30;24.70;75.10
2995;DHT22;35277;49.890;8.222;2023-05-10T02:03:02;24.70;75.10
2995;DHT22;35277;49.890;8.222;2023-05-10T02:05:32;24.70;75.10
2995;DHT22;35277;49.890;8.222;2023-05-10T02:08:01;24.70;75.10
2995;DHT22;35277;49.890;8.222;2023-05-10T02:10:31;24.70;75.10
2995;DHT22;35277;49.890;8.222;2023-05-10T02:13:00;24.70;75.10
2995;DHT22;35277;49.890;8.222;2023-05-10T02:15:29;24.70;75.10
2995;DHT22;35277;49.890;8.222;2023-05-10T02:18:00;24.70;75.10
2995;DHT22;35277;49.890;8.222;2023-05-10T02:20:29;24.70;75.10
2995;DHT22;35277;49.890;8.222;2023-05-10T02:22:59;24.70;75.10
2995;DHT22;35277;49.890;8.222;2023-05-10T02:25:29;24.60;75.00
2995;DHT22;35277;49.890;8.222;2023-05-10T02:28:00;24.70;75.10
2995;DHT22;35277;49.890;8.222;2023-05-10T02:30:29;24.70;75.10
2995;DHT22;35277;49.890;8.222;2023-05-10T02:33:01;24.60;75.00
2995;DHT22;35277;49.890;8.222;2023-05-10T02:35:30;24.60;75.00
2995;DHT22;35277;49.890;8.222;2023-05-10T02:38:01;24.60;75.00
2995;DHT22;35277;49.890;8.222;2023-05-10T02:40:30;24.70;75.10
2995;DHT22;35277;49.890;8.222;2023-05-10T02:42:59;24.60;74.90
2995;DHT22;35277;49.890;8.222;2023-05-10T02:45:31;24.60;75.00
2995;DHT22;35277;49.890;8.222;2023-05-10T02:48:01;24.60;74.90
2995;DHT22;35277;49.890;8.222;2023-05-10T02:50:30;24.60;74.90
2995;DHT22;35277;49.890;8.222;2023-05-10T02:53:00;24.60;75.00
2995;DHT22;35277;49.890;8.222;2023-05-10T02:55:35;24.60;74.90
2995;DHT22;35277;49.890;8.222;2023-05-10T02:58:04;24.60;74.90
2995;DHT22;35277;49.890;8.222;2023-05-10T03:00:32;24.60;74.90
2995;DHT22;35277;49.890;8.222;2023-05-10T03:03:01;24.60;74.90
2995;DHT22;35277;49.890;8.222;2023-05-10T03:05:29;24.60;74.90
2995;DHT22;35277;49.890;8.222;2023-05-10T03:08:00;24.60;75.70
2995;DHT22;35277;49.890;8.222;2023-05-10T03:10:33;24.60;74.90
2995;DHT22;35277;49.890;8.222;2023-05-10T03:13:07;24.60;74.90
2995;DHT22;35277;49.890;8.222;2023-05-10T03:15:47;24.60;74.90
2995;DHT22;35277;49.890;8.222;2023-05-10T03:18:21;24.70;75.00
2995;DHT22;35277;49.890;8.222;2023-05-10T03:20:51;24.60;74.90
2995;DHT22;35277;49.890;8.222;2023-05-10T03:23:27;24.60;74.90
2995;DHT22;35277;49.890;8.222;2023-05-10T03:25:58;24.60;74.90
2995;DHT22;35277;49.890;8.222;2023-05-10T03:28:27;24.60;74.90
2995;DHT22;35277;49.890;8.222;2023-05-10T03:30:55;24.60;74.90
2995;DHT22;35277;49.890;8.222;2023-05-10T03:33:25;24.60;74.90
2995;DHT22;35277;49.890;8.222;2023-05-10T03:35:53;24.60;74.90
2995;DHT22;35277;49.890;8.222;2023-05-10T03:38:20;24.60;74.80
2995;DHT22;35277;49.890;8.222;2023-05-10T03:40:48;24.60;74.90
2995;DHT22;35277;49.890;8.222;2023-05-10T03:43:16;24.60;74.90
2995;DHT22;35277;49.890;8.222;2023-05-10T03:45:44;24.60;74.90
2995;DHT22;35277;49.890;8.222;2023-05-10T03:48:12;24.60;74.80
2995;DHT22;35277;49.890;8.222;2023-05-10T03:50:42;24.60;74.80
2995;DHT22;35277;49.890;8.222;2023-05-10T03:53:10;24.60;74.80
2995;DHT22;35277;49.890;8.222;2023-05-10T03:55:38;24.60;74.90
2995;DHT22;35277;49.890;8.222;2023-05-10T03:58:10;24.60;74.80
2995;DHT22;35277;49.890;8.222;2023-05-10T04:00:38;24.60;74.80
2995;DHT22;35277;49.890;8.222;2023-05-10T04:03:10;24.60;74.80
2995;DHT22;35277;49.890;8.222;2023-05-10T04:05:38;24.60;74.80
2995;DHT22;35277;49.890;8.222;2023-05-10T04:08:07;24.60;74.80
2995;DHT22;35277;49.890;8.222;2023-05-10T04:10:35;24.60;74.80
2995;DHT22;35277;49.890;8.222;2023-05-10T04:13:03;24.60;74.70
2995;DHT22;35277;49.890;8.222;2023-05-10T04:15:31;24.60;74.70
2995;DHT22;35277;49.890;8.222;2023-05-10T04:17:59;24.60;74.70
2995;DHT22;35277;49.890;8.222;2023-05-10T04:20:27;24.60;74.70
2995;DHT22;35277;49.890;8.222;2023-05-10T04:22:55;24.60;74.70
2995;DHT22;35277;49.890;8.222;2023-05-10T04:25:24;24.60;74.70
2995;DHT22;35277;49.890;8.222;2023-05-10T04:27:52;24.60;74.80
2995;DHT22;35277;49.890;8.222;2023-05-10T04:30:20;24.60;75.10
2995;DHT22;35277;49.890;8.222;2023-05-10T04:32:48;24.60;75.30
2995;DHT22;35277;49.890;8.222;2023-05-10T04:35:16;24.60;75.40
2995;DHT22;35277;49.890;8.222;2023-05-10T04:37:44;24.60;75.40
2995;DHT22;35277;49.890;8.222;2023-05-10T04:40:12;24.60;75.60
2995;DHT22;35277;49.890;8.222;2023-05-10T04:42:41;24.60;75.60
2995;DHT22;35277;49.890;8.222;2023-05-10T04:45:09;24.60;75.70
2995;DHT22;35277;49.890;8.222;2023-05-10T04:47:37;24.60;75.80
2995;DHT22;35277;49.890;8.222;2023-05-10T04:50:06;24.60;75.80
2995;DHT22;35277;49.890;8.222;2023-05-10T04:52:34;24.60;76.80
2995;DHT22;35277;49.890;8.222;2023-05-10T04:55:03;24.60;76.10
2995;DHT22;35277;49.890;8.222;2023-05-10T04:57:31;24.60;76.10
2995;DHT22;35277;49.890;8.222;2023-05-10T05:00:01;24.70;76.20
2995;DHT22;35277;49.890;8.222;2023-05-10T05:02:29;24.70;76.20
2995;DHT22;35277;49.890;8.222;2023-05-10T05:04:57;24.70;76.20
2995;DHT22;35277;49.890;8.222;2023-05-10T05:07:25;24.70;76.20
2995;DHT22;35277;49.890;8.222;2023-05-10T05:09:53;24.70;76.10
2995;DHT22;35277;49.890;8.222;2023-05-10T05:12:20;24.60;76.00
2995;DHT22;35277;49.890;8.222;2023-05-10T05:14:48;24.70;76.00
2995;DHT22;35277;49.890;8.222;2023-05-10T05:17:17;24.60;75.90
2995;DHT22;35277;49.890;8.222;2023-05-10T05:19:45;24.60;75.80
2995;DHT22;35277;49.890;8.222;2023-05-10T05:22:13;24.60;75.80
2995;DHT22;35277;49.890;8.222;2023-05-10T05:24:42;24.60;75.70
2995;DHT22;35277;49.890;8.222;2023-05-10T05:27:09;24.60;75.70
2995;DHT22;35277;49.890;8.222;2023-05-10T05:29:37;24.60;75.60
2995;DHT22;35277;49.890;8.222;2023-05-10T05:32:05;24.60;75.50
2995;DHT22;35277;49.890;8.222;2023-05-10T05:34:36;24.60;75.50
2995;DHT22;35277;49.890;8.222;2023-05-10T05:37:04;24.60;75.40
2995;DHT22;35277;49.890;8.222;2023-05-10T05:39:32;24.60;75.30
2995;DHT22;35277;49.890;8.222;2023-05-10T05:42:00;24.60;75.30
2995;DHT22;35277;49.890;8.222;2023-05-10T05:44:28;24.60;75.20
2995;DHT22;35277;49.890;8.222;2023-05-10T05:46:55;24.60;75.20
2995;DHT22;35277;49.890;8.222;2023-05-10T05:49:23;24.70;75.20
2995;DHT22;35277;49.890;8.222;2023-05-10T05:51:52;24.60;75.10
2995;DHT22;35277;49.890;8.222;2023-05-10T05:54:20;24.70;75.20
2995;DHT22;35277;49.890;8.222;2023-05-10T05:56:48;24.60;75.10
2995;DHT22;35277;49.890;8.222;2023-05-10T05:59:16;24.70;75.10
2995;DHT22;35277;49.890;8.222;2023-05-10T06:01:43;24.70;75.10
2995;DHT22;35277;49.890;8.222;2023-05-10T06:04:11;24.70;75.10
2995;DHT22;35277;49.890;8.222;2023-05-10T06:06:39;24.70;75.10
2995;DHT22;35277;49.890;8.222;2023-05-10T06:09:09;24.60;74.90
2995;DHT22;35277;49.890;8.222;2023-05-10T06:11:37;24.70;75.00
2995;DHT22;35277;49.890;8.222;2023-05-10T06:14:05;24.70;75.00
2995;DHT22;35277;49.890;8.222;2023-05-10T06:16:34;24.70;75.00
2995;DHT22;35277;49.890;8.222;2023-05-10T06:19:02;24.70;74.90
2995;DHT22;35277;49.890;8.222;2023-05-10T06:21:30;24.70;74.90
2995;DHT22;35277;49.890;8.222;2023-05-10T06:23:58;24.70;74.90
2995;DHT22;35277;49.890;8.222;2023-05-10T06:26:27;24.70;74.90
2995;DHT22;35277;49.890;8.222;2023-05-10T06:28:55;24.70;74.90
2995;DHT22;35277;49.890;8.222;2023-05-10T06:31:23;24.70;74.90
2995;DHT22;35277;49.890;8.222;2023-05-10T06:33:51;24.70;74.90
2995;DHT22;35277;49.890;8.222;2023-05-10T06:36:22;24.70;74.90
2995;DHT22;35277;49.890;8.222;2023-05-10T06:38:51;24.70;74.90
2995;DHT22;35277;49.890;8.222;2023-05-10T06:41:19;24.70;74.90
2995;DHT22;35277;49.890;8.222;2023-05-10T06:43:51;24.70;74.90
2995;DHT22;35277;49.890;8.222;2023-05-10T06:46:19;24.70;74.90
2995;DHT22;35277;49.890;8.222;2023-05-10T06:48:47;24.70;74.90
2995;DHT22;35277;49.890;8.222;2023-05-10T06:51:15;24.70;74.90
2995;DHT22;35277;49.890;8.222;2023-05-10T06:53:42;24.70;74.90
2995;DHT22;35277;49.890;8.222;2023-05-10T06:56:10;24.70;74.90
2995;DHT22;35277;49.890;8.222;2023-05-10T06:58:38;24.70;74.90
2995;DHT22;35277;49.890;8.222;2023-05-10T07:01:07;24.70;74.90
2995;DHT22;35277;49.890;8.222;2023-05-10T07:03:35;24.70;74.80
2995;DHT22;35277;49.890;8.222;2023-05-10T07:06:04;24.70;74.80
2995;DHT22;35277;49.890;8.222;2023-05-10T07:08:41;24.70;74.80
2995;DHT22;35277;49.890;8.222;2023-05-10T07:11:09;24.70;74.70
2995;DHT22;35277;49.890;8.222;2023-05-10T07:13:37;24.70;74.70
2995;DHT22;35277;49.890;8.222;2023-05-10T07:16:05;24.70;74.70
2995;DHT22;35277;49.890;8.222;2023-05-10T07:18:35;24.70;74.70
2995;DHT22;35277;49.890;8.222;2023-05-10T07:21:03;24.70;74.70
2995;DHT22;35277;49.890;8.222;2023-05-10T07:23:31;24.70;74.70
2995;DHT22;35277;49.890;8.222;2023-05-10T07:25:59;24.70;74.70
2995;DHT22;35277;49.890;8.222;2023-05-10T07:28:28;24.70;74.70
2995;DHT22;35277;49.890;8.222;2023-05-10T07:30:56;24.70;74.70
2995;DHT22;35277;49.890;8.222;2023-05-10T07:33:24;24.70;74.70
2995;DHT22;35277;49.890;8.222;2023-05-10T07:35:53;24.70;74.70
2995;DHT22;35277;49.890;8.222;2023-05-10T07:38:21;24.70;74.70
2995;DHT22;35277;49.890;8.222;2023-05-10T07:40:49;24.70;74.70
2995;DHT22;35277;49.890;8.222;2023-05-10T07:43:17;24.70;74.80
2995;DHT22;35277;49.890;8.222;2023-05-10T07:45:45;24.70;74.70
2995;DHT22;35277;49.890;8.222;2023-05-10T07:48:13;24.70;74.70
2995;DHT22;35277;49.890;8.222;2023-05-10T07:50:41;24.70;74.80
2995;DHT22;35277;49.890;8.222;2023-05-10T07:53:10;24.70;74.70
2995;DHT22;35277;49.890;8.222;2023-05-10T07:55:37;24.70;74.70
2995;DHT22;35277;49.890;8.222;2023-05-10T07:58:05;24.70;74.70
2995;DHT22;35277;49.890;8.222;2023-05-10T08:00:33;24.70;74.70
2995;DHT22;35277;49.890;8.222;2023-05-10T08:03:01;24.70;74.70
2995;DHT22;35277;49.890;8.222;2023-05-10T08:05:29;24.70;74.70
2995;DHT22;35277;49.890;8.222;2023-05-10T08:08:00;24.80;74.80
2995;DHT22;35277;49.890;8.222;2023-05-10T08:10:30;24.80;74.80
2995;DHT22;35277;49.890;8.222;2023-05-10T08:12:57;24.80;74.80
2995;DHT22;35277;49.890;8.222;2023-05-10T08:15:25;24.80;74.80
2995;DHT22;35277;49.890;8.222;2023-05-10T08:17:53;24.80;74.80
2995;DHT22;35277;49.890;8.222;2023-05-10T08:20:21;24.80;74.80
2995;DHT22;35277;49.890;8.222;2023-05-10T08:22:49;24.80;74.80
2995;DHT22;35277;49.890;8.222;2023-05-10T08:25:17;24.80;74.70
2995;DHT22;35277;49.890;8.222;2023-05-10T08:27:47;24.80;74.70
2995;DHT22;35277;49.890;8.222;2023-05-10T08:30:14;24.80;74.70
2995;DHT22;35277;49.890;8.222;2023-05-10T08:32:42;24.80;74.60
2995;DHT22;35277;49.890;8.222;2023-05-10T08:35:10;24.80;74.70
2995;DHT22;35277;49.890;8.222;2023-05-10T08:37:38;24.80;74.70
2995;DHT22;35277;49.890;8.222;2023-05-10T08:40:07;24.80;74.70
2995;DHT22;35277;49.890;8.222;2023-05-10T08:42:39;24.80;74.60
2995;DHT22;35277;49.890;8.222;2023-05-10T08:45:10;24.80;74.60
2995;DHT22;35277;49.890;8.222;2023-05-10T08:47:39;24.80;74.50
2995;DHT22;35277;49.890;8.222;2023-05-10T08:50:07;24.80;74.50
2995;DHT22;35277;49.890;8.222;2023-05-10T08:52:38;24.80;74.50
2995;DHT22;35277;49.890;8.222;2023-05-10T08:55:07;24.80;74.60
2995;DHT22;35277;49.890;8.222;2023-05-10T08:57:36;24.80;74.40
2995;DHT22;35277;49.890;8.222;2023-05-10T09:00:05;24.80;74.50
2995;DHT22;35277;49.890;8.222;2023-05-10T09:02:35;24.80;74.40
2995;DHT22;35277;49.890;8.222;2023-05-10T09:05:05;24.80;74.40
2995;DHT22;35277;49.890;8.222;2023-05-10T09:07:33;24.80;74.40
2995;DHT22;35277;49.890;8.222;2023-05-10T09:10:02;24.90;74.50
2995;DHT22;35277;49.890;8.222;2023-05-10T09:12:30;24.90;75.30
2995;DHT22;35277;49.890;8.222;2023-05-10T09:14:59;24.90;74.50
2995;DHT22;35277;49.890;8.222;2023-05-10T09:17:28;24.90;74.50
2995;DHT22;35277;49.890;8.222;2023-05-10T09:20:01;24.90;74.50
2995;DHT22;35277;49.890;8.222;2023-05-10T09:22:31;24.90;74.50
2995;DHT22;35277;49.890;8.222;2023-05-10T09:25:06;24.90;74.40
2995;DHT22;35277;49.890;8.222;2023-05-10T09:27:35;24.90;74.40
2995;DHT22;35277;49.890;8.222;2023-05-10T09:30:04;24.90;74.40
2995;DHT22;35277;49.890;8.222;2023-05-10T09:32:39;24.90;74.50
2995;DHT22;35277;49.890;8.222;2023-05-10T09:35:09;24.90;74.40
2995;DHT22;35277;49.890;8.222;2023-05-10T09:37:39;24.90;74.50
2995;DHT22;35277;49.890;8.222;2023-05-10T09:40:11;24.90;74.50
2995;DHT22;35277;49.890;8.222;2023-05-10T09:42:42;24.90;74.40
2995;DHT22;35277;49.890;8.222;2023-05-10T09:45:10;24.90;74.40
2995;DHT22;35277;49.890;8.222;2023-05-10T09:47:37;24.90;74.40
2995;DHT22;35277;49.890;8.222;2023-05-10T09:50:06;24.90;74.40
2995;DHT22;35277;49.890;8.222;2023-05-10T09:52:48;24.90;74.40
2995;DHT22;35277;49.890;8.222;2023-05-10T09:55:16;24.90;74.40
2995;DHT22;35277;49.890;8.222;2023-05-10T09:57:44;24.90;74.40
2995;DHT22;35277;49.890;8.222;2023-05-10T10:00:17;24.90;74.40
2995;DHT22;35277;49.890;8.222;2023-05-10T10:02:47;24.90;74.50
2995;DHT22;35277;49.890;8.222;2023-05-10T10:05:15;24.90;74.70
2995;DHT22;35277;49.890;8.222;2023-05-10T10:07:43;24.90;75.00
2995;DHT22;35277;49.890;8.222;2023-05-10T10:10:13;24.90;75.10
2995;DHT22;35277;49.890;8.222;2023-05-10T10:12:41;24.90;75.60
2995;DHT22;35277;49.890;8.222;2023-05-10T10:15:09;24.90;76.00
2995;DHT22;35277;49.890;8.222;2023-05-10T10:17:38;24.90;76.00
2995;DHT22;35277;49.890;8.222;2023-05-10T10:20:07;25.00;76.10
2995;DHT22;35277;49.890;8.222;2023-05-10T10:22:37;25.00;76.10
2995;DHT22;35277;49.890;8.222;2023-05-10T10:25:07;25.00;76.10
2995;DHT22;35277;49.890;8.222;2023-05-10T10:27:43;25.00;76.10
2995;DHT22;35277;49.890;8.222;2023-05-10T10:30:20;25.00;76.10
2995;DHT22;35277;49.890;8.222;2023-05-10T10:33:01;25.00;76.10
2995;DHT22;35277;49.890;8.222;2023-05-10T10:35:53;25.00;76.00
2995;DHT22;35277;49.890;8.222;2023-05-10T10:38:22;25.00;76.00
2995;DHT22;35277;49.890;8.222;2023-05-10T10:41:02;25.00;76.00
2995;DHT22;35277;49.890;8.222;2023-05-10T10:43:31;24.90;75.60
2995;DHT22;35277;49.890;8.222;2023-05-10T10:46:15;24.90;75.50
2995;DHT22;35277;49.890;8.222;2023-05-10T10:48:48;24.90;75.20
2995;DHT22;35277;49.890;8.222;2023-05-10T10:51:17;24.90;75.00
2995;DHT22;35277;49.890;8.222;2023-05-10T10:53:47;24.90;74.80
2995;DHT22;35277;49.890;8.222;2023-05-10T10:56:22;24.90;74.60
2995;DHT22;35277;49.890;8.222;2023-05-10T10:58:52;24.90;74.40
2995;DHT22;35277;49.890;8.222;2023-05-10T11:01:20;24.90;74.20
2995;DHT22;35277;49.890;8.222;2023-05-10T11:04:16;24.80;73.90
2995;DHT22;35277;49.890;8.222;2023-05-10T11:06:45;24.80;73.70
2995;DHT22;35277;49.890;8.222;2023-05-10T11:09:13;24.80;73.50
2995;DHT22;35277;49.890;8.222;2023-05-10T11:11:52;24.80;73.30
2995;DHT22;35277;49.890;8.222;2023-05-10T11:14:22;24.80;73.10
2995;DHT22;35277;49.890;8.222;2023-05-10T11:16:51;24.80;72.90
2995;DHT22;35277;49.890;8.222;2023-05-10T11:19:19;24.80;72.70
2995;DHT22;35277;49.890;8.222;2023-05-10T11:21:48;24.90;72.70
2995;DHT22;35277;49.890;8.222;2023-05-10T11:24:18;24.80;72.40
2995;DHT22;35277;49.890;8.222;2023-05-10T11:26:49;24.90;72.30
2995;DHT22;35277;49.890;8.222;2023-05-10T11:29:17;24.90;72.10
2995;DHT22;35277;49.890;8.222;2023-05-10T11:31:47;24.90;71.70
2995;DHT22;35277;49.890;8.222;2023-05-10T11:34:26;24.90;71.40
2995;DHT22;35277;49.890;8.222;2023-05-10T11:36:55;24.90;71.20
2995;DHT22;35277;49.890;8.222;2023-05-10T11:39:26;24.90;71.00
2995;DHT22;35277;49.890;8.222;2023-05-10T11:41:55;24.90;70.90
2995;DHT22;35277;49.890;8.222;2023-05-10T11:44:23;24.90;70.80
2995;DHT22;35277;49.890;8.222;2023-05-10T11:46:53;24.90;71.30
2995;DHT22;35277;49.890;8.222;2023-05-10T11:49:23;24.90;70.40
2995;DHT22;35277;49.890;8.222;2023-05-10T11:51:52;24.80;69.80
2995;DHT22;35277;49.890;8.222;2023-05-10T11:54:20;24.80;69.50
2995;DHT22;35277;49.890;8.222;2023-05-10T11:56:50;24.80;69.50
2995;DHT22;35277;49.890;8.222;2023-05-10T11:59:17;24.80;69.60
2995;DHT22;35277;49.890;8.222;2023-05-10T12:01:45;24.80;69.40
2995;DHT22;35277;49.890;8.222;2023-05-10T12:04:14;24.80;69.40
2995;DHT22;35277;49.890;8.222;2023-05-10T12:06:43;24.80;69.40
2995;DHT22;35277;49.890;8.222;2023-05-10T12:09:13;24.80;69.40
2995;DHT22;35277;49.890;8.222;2023-05-10T12:11:41;24.80;69.40
2995;DHT22;35277;49.890;8.222;2023-05-10T12:14:10;24.80;69.20
2995;DHT22;35277;49.890;8.222;2023-05-10T12:16:38;24.80;69.20
2995;DHT22;35277;49.890;8.222;2023-05-10T12:19:06;24.80;69.20
2995;DHT22;35277;49.890;8.222;2023-05-10T12:21:35;24.80;69.20
2995;DHT22;35277;49.890;8.222;2023-05-10T12:24:05;24.80;69.20
2995;DHT22;35277;49.890;8.222;2023-05-10T12:26:35;24.80;69.30
2995;DHT22;35277;49.890;8.222;2023-05-10T12:29:12;24.80;69.20
2995;DHT22;35277;49.890;8.222;2023-05-10T12:31:50;24.80;69.20
2995;DHT22;35277;49.890;8.222;2023-05-10T12:34:25;24.80;69.10
2995;DHT22;35277;49.890;8.222;2023-05-10T12:36:54;24.80;69.00
2995;DHT22;35277;49.890;8.222;2023-05-10T12:39:23;24.80;69.10
2995;DHT22;35277;49.890;8.222;2023-05-10T12:41:50;24.80;69.20
2995;DHT22;35277;49.890;8.222;2023-05-10T12:44:18;24.80;69.30
2995;DHT22;35277;49.890;8.222;2023-05-10T12:46:46;24.80;69.40
2995;DHT22;35277;49.890;8.222;2023-05-10T12:49:14;24.80;69.40
2995;DHT22;35277;49.890;8.222;2023-05-10T12:51:43;24.80;69.50
2995;DHT22;35277;49.890;8.222;2023-05-10T12:54:12;24.80;69.50
2995;DHT22;35277;49.890;8.222;2023-05-10T12:56:40;24.80;69.60
2995;DHT22;35277;49.890;8.222;2023-05-10T12:59:09;24.80;69.60
2995;DHT22;35277;49.890;8.222;2023-05-10T13:01:37;24.80;69.70
2995;DHT22;35277;49.890;8.222;2023-05-10T13:04:05;24.90;69.90
2995;DHT22;35277;49.890;8.222;2023-05-10T13:06:32;24.90;69.90
2995;DHT22;35277;49.890;8.222;2023-05-10T13:09:01;24.90;70.00
2995;DHT22;35277;49.890;8.222;2023-05-10T13:11:31;24.90;70.00
2995;DHT22;35277;49.890;8.222;2023-05-10T13:13:59;24.90;70.10
2995;DHT22;35277;49.890;8.222;2023-05-10T13:16:26;24.90;70.10
2995;DHT22;35277;49.890;8.222;2023-05-10T13:18:54;24.90;70.10
2995;DHT22;35277;49.890;8.222;2023-05-10T13:21:22;24.90;70.10
2995;DHT22;35277;49.890;8.222;2023-05-10T13:23:51;24.90;70.20
2995;DHT22;35277;49.890;8.222;2023-05-10T13:26:19;25.00;70.20
2995;DHT22;35277;49.890;8.222;2023-05-10T13:28:49;25.00;70.20
2995;DHT22;35277;49.890;8.222;2023-05-10T13:31:18;25.00;70.20
2995;DHT22;35277;49.890;8.222;2023-05-10T13:33:46;25.00;70.30
2995;DHT22;35277;49.890;8.222;2023-05-10T13:36:13;25.00;70.40
2995;DHT22;35277;49.890;8.222;2023-05-10T13:38:41;25.00;70.50
2995;DHT22;35277;49.890;8.222;2023-05-10T13:41:09;25.00;70.60
2995;DHT22;35277;49.890;8.222;2023-05-10T13:43:37;25.00;70.60
2995;DHT22;35277;49.890;8.222;2023-05-10T13:46:06;25.00;70.70
2995;DHT22;35277;49.890;8.222;2023-05-10T13:48:34;25.00;70.70
2995;DHT22;35277;49.890;8.222;2023-05-10T13:51:04;25.10;70.80
2995;DHT22;35277;49.890;8.222;2023-05-10T13:53:32;25.10;70.80
2995;DHT22;35277;49.890;8.222;2023-05-10T13:56:00;25.10;70.90
2995;DHT22;35277;49.890;8.222;2023-05-10T13:58:28;25.10;70.90
2995;DHT22;35277;49.890;8.222;2023-05-10T14:00:56;25.10;71.00
2995;DHT22;35277;49.890;8.222;2023-05-10T14:03:26;25.10;71.00
2995;DHT22;35277;49.890;8.222;2023-05-10T14:05:54;25.10;71.00
2995;DHT22;35277;49.890;8.222;2023-05-10T14:08:22;25.10;71.00
2995;DHT22;35277;49.890;8.222;2023-05-10T14:10:50;25.10;71.10
2995;DHT22;35277;49.890;8.222;2023-05-10T14:13:18;25.10;71.10
2995;DHT22;35277;49.890;8.222;2023-05-10T14:15:46;25.20;71.20
2995;DHT22;35277;49.890;8.222;2023-05-10T14:18:14;25.20;71.30
2995;DHT22;35277;49.890;8.222;2023-05-10T14:20:43;25.20;71.40
2995;DHT22;35277;49.890;8.222;2023-05-10T14:23:11;25.20;71.40
2995;DHT22;35277;49.890;8.222;2023-05-10T14:25:39;25.20;71.40
2995;DHT22;35277;49.890;8.222;2023-05-10T14:28:07;25.20;71.40
2995;DHT22;35277;49.890;8.222;2023-05-10T14:30:35;25.20;71.40
2995;DHT22;35277;49.890;8.222;2023-05-10T14:33:03;25.20;71.10
2995;DHT22;35277;49.890;8.222;2023-05-10T14:35:31;25.20;70.60
2995;DHT22;35277;49.890;8.222;2023-05-10T14:38:01;25.20;70.20
2995;DHT22;35277;49.890;8.222;2023-05-10T14:40:30;25.10;68.40
2995;DHT22;35277;49.890;8.222;2023-05-10T14:42:57;25.00;67.50
2995;DHT22;35277;49.890;8.222;2023-05-10T14:45:25;24.90;66.80
2995;DHT22;35277;49.890;8.222;2023-05-10T14:47:53;24.90;66.60
2995;DHT22;35277;49.890;8.222;2023-05-10T14:50:21;24.80;66.70
2995;DHT22;35277;49.890;8.222;2023-05-10T14:53:04;24.80;66.80
2995;DHT22;35277;49.890;8.222;2023-05-10T14:55:31;24.80;66.30
2995;DHT22;35277;49.890;8.222;2023-05-10T14:58:01;24.80;66.20
2995;DHT22;35277;49.890;8.222;2023-05-10T15:00:31;24.70;65.60
2995;DHT22;35277;49.890;8.222;2023-05-10T15:02:59;24.70;65.60
2995;DHT22;35277;49.890;8.222;2023-05-10T15:05:27;24.70;65.50
2995;DHT22;35277;49.890;8.222;2023-05-10T15:07:56;24.70;65.50
2995;DHT22;35277;49.890;8.222;2023-05-10T15:10:25;24.70;65.50
2995;DHT22;35277;49.890;8.222;2023-05-10T15:12:53;24.70;64.90
2995;DHT22;35277;49.890;8.222;2023-05-10T15:15:21;24.60;64.30
2995;DHT22;35277;49.890;8.222;2023-05-10T15:17:48;24.60;64.00
2995;DHT22;35277;49.890;8.222;2023-05-10T15:20:16;24.50;63.90
2995;DHT22;35277;49.890;8.222;2023-05-10T15:22:44;24.50;64.10
2995;DHT22;35277;49.890;8.222;2023-05-10T15:25:12;24.50;64.30
2995;DHT22;35277;49.890;8.222;2023-05-10T15:27:43;24.60;64.50
2995;DHT22;35277;49.890;8.222;2023-05-10T15:30:12;24.60;64.70
2995;DHT22;35277;49.890;8.222;2023-05-10T15:32:40;24.70;64.80
2995;DHT22;35277;49.890;8.222;2023-05-10T15:35:08;24.70;64.90
2995;DHT22;35277;49.890;8.222;2023-05-10T15:37:36;24.80;65.10
2995;DHT22;35277;49.890;8.222;2023-05-10T15:40:05;24.80;65.10
2995;DHT22;35277;49.890;8.222;2023-05-10T15:42:33;24.90;65.20
2995;DHT22;35277;49.890;8.222;2023-05-10T15:45:02;24.90;65.20
2995;DHT22;35277;49.890;8.222;2023-05-10T15:47:30;25.00;65.30
2995;DHT22;35277;49.890;8.222;2023-05-10T15:49:58;25.10;65.40
2995;DHT22;35277;49.890;8.222;2023-05-10T15:52:26;25.10;65.40
2995;DHT22;35277;49.890;8.222;2023-05-10T15:54:54;25.20;65.50
2995;DHT22;35277;49.890;8.222;2023-05-10T15:57:22;25.30;65.60
2995;DHT22;35277;49.890;8.222;2023-05-10T15:59:49;25.30;65.60
2995;DHT22;35277;49.890;8.222;2023-05-10T16:02:19;25.40;65.80